createdAt,value
2022-11-19T00:01:34.015Z,-2.94
2022-11-19T00:04:01.418Z,-2.97
2022-11-19T00:06:30.174Z,-2.99
2022-11-19T00:08:57.624Z,-3.01
2022-11-19T00:11:40.963Z,-3.02
2022-11-19T00:14:09.485Z,-3.04
2022-11-19T00:16:36.993Z,-3.05
2022-11-19T00:19:04.558Z,-3.07
2022-11-19T00:21:33.353Z,-3.08
2022-11-19T00:24:00.830Z,-3.07
2022-11-19T00:26:28.312Z,-3.07
2022-11-19T00:28:56.261Z,-3.09
2022-11-19T00:31:24.096Z,-3.08
2022-11-19T00:33:54.230Z,-3.09
2022-11-19T00:36:23.173Z,-3.08
2022-11-19T00:38:52.003Z,-3.10
2022-11-19T00:41:20.492Z,-3.11
2022-11-19T00:43:48.528Z,-3.12
2022-11-19T00:46:18.736Z,-3.13
2022-11-19T00:48:47.106Z,-3.12
2022-11-19T00:51:15.669Z,-3.12
2022-11-19T00:53:43.181Z,-3.15
2022-11-19T00:56:13.843Z,-3.16
2022-11-19T00:58:42.029Z,-3.18
2022-11-19T01:01:10.591Z,-3.18
2022-11-19T01:03:40.020Z,-3.19
2022-11-19T01:06:08.209Z,-3.19
2022-11-19T01:08:36.508Z,-3.21
2022-11-19T01:11:09.643Z,-3.22
2022-11-19T01:13:38.461Z,-3.25
2022-11-19T01:16:08.373Z,-3.26
2022-11-19T01:18:36.930Z,-3.27
2022-11-19T01:21:06.392Z,-3.28
2022-11-19T01:23:34.355Z,-3.30
2022-11-19T01:26:02.356Z,-3.32
2022-11-19T01:28:30.650Z,-3.35
2022-11-19T01:31:00.881Z,-3.35
2022-11-19T01:33:28.836Z,-3.36
2022-11-19T01:35:57.777Z,-3.37
2022-11-19T01:38:25.485Z,-3.36
2022-11-19T01:40:53.306Z,-3.37
2022-11-19T01:43:20.899Z,-3.36
2022-11-19T01:45:49.865Z,-3.39
2022-11-19T01:48:22.076Z,-3.40
2022-11-19T01:50:55.487Z,-3.41
2022-11-19T01:53:26.893Z,-3.43
2022-11-19T01:55:55.059Z,-3.44
2022-11-19T01:58:25.269Z,-3.46
2022-11-19T02:00:52.778Z,-3.46
2022-11-19T02:03:21.629Z,-3.46
2022-11-19T02:05:49.173Z,-3.45
2022-11-19T02:08:39.695Z,-3.47
2022-11-19T02:11:25.124Z,-3.49
2022-11-19T02:14:01.508Z,-3.49
2022-11-19T02:16:37.443Z,-3.50
2022-11-19T02:19:20.675Z,-3.50
2022-11-19T02:22:02.471Z,-3.50
2022-11-19T02:24:42.692Z,-3.50
2022-11-19T02:27:35.468Z,-3.52
2022-11-19T02:30:06.927Z,-3.54
2022-11-19T02:32:37.598Z,-3.55
2022-11-19T02:35:20.047Z,-3.58
2022-11-19T02:37:54.795Z,-3.58
2022-11-19T02:40:28.011Z,-3.60
2022-11-19T02:43:04.135Z,-3.60
2022-11-19T02:45:37.003Z,-3.62
2022-11-19T02:48:09.652Z,-3.61
2022-11-19T02:50:40.932Z,-3.62
2022-11-19T02:53:08.376Z,-3.64
2022-11-19T02:55:37.514Z,-3.65
2022-11-19T02:58:10.295Z,-3.65
2022-11-19T03:01:08.790Z,-3.64
2022-11-19T03:04:06.484Z,-3.64
2022-11-19T03:06:34.709Z,-3.65
2022-11-19T03:09:02.916Z,-3.67
2022-11-19T03:11:32.584Z,-3.68
2022-11-19T03:14:29.510Z,-3.68
2022-11-19T03:17:02.673Z,-3.69
2022-11-19T03:19:38.132Z,-3.70
2022-11-19T03:22:11.366Z,-3.71
2022-11-19T03:24:42.831Z,-3.72
2022-11-19T03:27:13.962Z,-3.74
2022-11-19T03:29:44.737Z,-3.74
2022-11-19T03:32:17.461Z,-3.77
2022-11-19T03:34:47.601Z,-3.78
2022-11-19T03:37:17.960Z,-3.79
2022-11-19T03:39:47.080Z,-3.80
2022-11-19T03:42:17.957Z,-3.80
2022-11-19T03:44:50.059Z,-3.82
2022-11-19T03:47:22.191Z,-3.82
2022-11-19T03:49:54.852Z,-3.84
2022-11-19T03:52:22.766Z,-3.84
2022-11-19T03:54:50.504Z,-3.85
2022-11-19T03:57:21.093Z,-3.87
2022-11-19T03:59:48.670Z,-3.86
2022-11-19T04:02:17.197Z,-3.87
2022-11-19T04:04:46.007Z,-3.89
2022-11-19T04:07:15.089Z,-3.90
2022-11-19T04:09:43.438Z,-3.91
2022-11-19T04:12:17.668Z,-3.89
2022-11-19T04:14:45.565Z,-3.90
2022-11-19T04:17:13.027Z,-3.91
2022-11-19T04:19:40.500Z,-3.91
2022-11-19T04:22:09.293Z,-3.93
2022-11-19T04:24:37.199Z,-3.92
2022-11-19T04:27:05.108Z,-3.91
2022-11-19T04:29:32.785Z,-3.93
2022-11-19T04:32:00.329Z,-3.92
2022-11-19T04:34:27.832Z,-3.91
2022-11-19T04:36:55.360Z,-3.92
2022-11-19T04:39:24.180Z,-3.92
2022-11-19T04:41:51.680Z,-3.91
2022-11-19T04:44:19.235Z,-3.91
2022-11-19T04:46:46.695Z,-3.91
2022-11-19T04:49:14.366Z,-3.92
2022-11-19T04:51:41.822Z,-3.92
2022-11-19T04:54:09.482Z,-3.93
2022-11-19T04:56:38.556Z,-3.92
2022-11-19T04:59:07.711Z,-3.92
2022-11-19T05:01:35.320Z,-3.91
2022-11-19T05:04:03.027Z,-3.92
2022-11-19T05:06:30.486Z,-3.92
2022-11-19T05:08:58.054Z,-3.90
2022-11-19T05:11:25.545Z,-3.91
2022-11-19T05:13:54.294Z,-3.91
2022-11-19T05:16:21.771Z,-3.90
2022-11-19T05:18:49.216Z,-3.89
2022-11-19T05:21:16.633Z,-3.89
2022-11-19T05:23:44.115Z,-3.90
2022-11-19T05:26:11.576Z,-3.90
2022-11-19T05:28:39.986Z,-3.90
2022-11-19T05:31:10.376Z,-3.91
2022-11-19T05:33:37.912Z,-3.90
2022-11-19T05:36:06.156Z,-3.90
2022-11-19T05:38:33.592Z,-3.91
2022-11-19T05:41:01.040Z,-3.89
2022-11-19T05:43:28.502Z,-3.88
2022-11-19T05:45:55.924Z,-3.89
2022-11-19T05:48:24.669Z,-3.87
2022-11-19T05:50:52.078Z,-3.89
2022-11-19T05:53:19.583Z,-3.86
2022-11-19T05:55:47.015Z,-3.85
2022-11-19T05:58:14.539Z,-3.83
2022-11-19T06:00:42.393Z,-3.82
2022-11-19T06:03:10.529Z,-3.81
2022-11-19T06:05:40.770Z,-3.79
2022-11-19T06:08:08.488Z,-3.74
2022-11-19T06:10:36.138Z,-3.71
2022-11-19T06:13:03.668Z,-3.69
2022-11-19T06:15:31.342Z,-3.68
2022-11-19T06:17:58.877Z,-3.67
2022-11-19T06:20:26.720Z,-3.64
2022-11-19T06:22:55.573Z,-3.63
2022-11-19T06:25:23.069Z,-3.63
2022-11-19T06:27:51.004Z,-3.61
2022-11-19T06:30:18.547Z,-3.60
2022-11-19T06:32:46.479Z,-3.59
2022-11-19T06:35:14.659Z,-3.57
2022-11-19T06:37:42.205Z,-3.57
2022-11-19T06:40:12.663Z,-3.56
2022-11-19T06:42:40.144Z,-3.55
2022-11-19T06:45:09.797Z,-3.53
2022-11-19T06:47:38.659Z,-3.52
2022-11-19T06:50:07.134Z,-3.49
2022-11-19T06:52:34.642Z,-3.49
2022-11-19T06:55:02.288Z,-3.46
2022-11-19T06:57:31.567Z,-3.45
2022-11-19T06:59:59.248Z,-3.43
2022-11-19T07:02:26.779Z,-3.43
2022-11-19T07:04:54.440Z,-3.39
2022-11-19T07:07:22.449Z,-3.38
2022-11-19T07:09:50.231Z,-3.35
2022-11-19T07:12:17.768Z,-3.31
2022-11-19T07:14:46.699Z,-3.30
2022-11-19T07:17:14.341Z,-3.26
2022-11-19T07:19:42.252Z,-3.25
2022-11-19T07:22:09.801Z,-3.21
2022-11-19T07:24:37.330Z,-3.19
2022-11-19T07:27:04.900Z,-3.17
2022-11-19T07:29:32.497Z,-3.15
2022-11-19T07:32:04.695Z,-3.11
2022-11-19T07:34:32.201Z,-3.07
2022-11-19T07:36:59.639Z,-3.04
2022-11-19T07:39:27.103Z,-2.99
2022-11-19T07:42:12.256Z,-2.94
2022-11-19T07:44:41.530Z,-2.88
2022-11-19T07:47:10.696Z,-2.85
2022-11-19T07:49:38.483Z,-2.80
2022-11-19T07:52:05.963Z,-2.73
2022-11-19T07:54:33.467Z,-2.70
2022-11-19T08:00:56.956Z,-2.62
2022-11-19T08:03:56.273Z,-2.56
2022-11-19T08:06:26.609Z,-2.52
2022-11-19T08:08:55.516Z,-2.46
2022-11-19T08:11:24.310Z,-2.42
2022-11-19T08:13:52.600Z,-2.37
2022-11-19T08:16:34.738Z,-2.32
2022-11-19T08:19:37.494Z,-2.26
2022-11-19T08:25:08.417Z,-2.13
2022-11-19T08:27:36.194Z,-2.08
2022-11-19T08:30:04.822Z,-2.01
2022-11-19T08:32:32.888Z,-1.93
2022-11-19T08:35:03.686Z,-1.86
2022-11-19T08:37:31.726Z,-1.79
2022-11-19T08:40:00.033Z,-1.73
2022-11-19T08:42:46.354Z,-1.68
2022-11-19T08:45:18.135Z,-1.61
2022-11-19T08:47:48.611Z,-1.56
2022-11-19T08:50:28.430Z,-1.49
2022-11-19T08:52:58.050Z,-1.41
2022-11-19T08:55:28.260Z,-1.33
2022-11-19T08:58:01.596Z,-1.29
2022-11-19T09:00:30.169Z,-1.22
2022-11-19T09:03:00.497Z,-1.17
2022-11-19T09:05:30.751Z,-1.06
2022-11-19T09:07:58.612Z,-1.01
2022-11-19T09:13:27.851Z,-0.88
2022-11-19T09:15:55.898Z,-0.85
2022-11-19T09:18:23.862Z,-0.79
2022-11-19T09:20:57.174Z,-0.68
2022-11-19T09:23:27.579Z,-0.59
2022-11-19T09:26:01.267Z,-0.50
2022-11-19T09:28:48.060Z,-0.44
2022-11-19T09:31:18.792Z,-0.38
2022-11-19T09:33:49.029Z,-0.35
2022-11-19T09:36:18.879Z,-0.34
2022-11-19T09:38:48.686Z,-0.32
2022-11-19T09:41:39.957Z,-0.29
2022-11-19T09:44:20.114Z,-0.25
2022-11-19T09:46:56.896Z,-0.21
2022-11-19T09:49:32.707Z,-0.15
2022-11-19T09:52:07.375Z,-0.12
2022-11-19T09:54:36.578Z,-0.07
2022-11-19T09:57:13.581Z,-0.04
2022-11-19T09:59:44.519Z,0.01
2022-11-19T10:02:19.306Z,0.07
2022-11-19T10:04:48.422Z,0.11
2022-11-19T10:07:36.533Z,0.14
2022-11-19T10:10:20.278Z,0.19
2022-11-19T10:13:12.528Z,0.23
2022-11-19T10:15:53.921Z,0.26
2022-11-19T10:18:32.700Z,0.26
2022-11-19T10:21:08.633Z,0.27
2022-11-19T10:23:56.593Z,0.28
2022-11-19T10:26:33.604Z,0.30
2022-11-19T10:29:07.593Z,0.34
2022-11-19T10:31:40.958Z,0.38
2022-11-19T10:34:16.129Z,0.43
2022-11-19T10:40:26.592Z,0.55
2022-11-19T10:45:44.556Z,0.61
2022-11-19T10:48:27.556Z,0.62
2022-11-19T10:51:08.539Z,0.69
2022-11-19T10:59:24.125Z,0.90
2022-11-19T11:01:58.486Z,1.02
2022-11-19T11:05:18.875Z,1.19
2022-11-19T11:08:04.615Z,1.43
2022-11-19T11:10:43.573Z,1.64
2022-11-19T11:13:38.972Z,1.83
2022-11-19T11:16:09.988Z,2.08
2022-11-19T11:18:46.949Z,2.27
2022-11-19T11:21:30.538Z,2.44
2022-11-19T11:23:59.325Z,2.57
2022-11-19T11:26:29.962Z,2.70
2022-11-19T11:29:02.585Z,2.80
2022-11-19T11:31:33.091Z,2.89
2022-11-19T11:34:02.295Z,2.95
2022-11-19T11:36:39.194Z,3.02
2022-11-19T11:39:08.105Z,3.03
2022-11-19T11:44:30.214Z,2.97
2022-11-19T11:47:04.220Z,2.93
2022-11-19T11:49:36.544Z,2.91
2022-11-19T11:52:23.208Z,2.88
2022-11-19T11:55:03.869Z,2.86
2022-11-19T11:57:34.838Z,2.85
2022-11-19T12:00:05.580Z,2.81
2022-11-19T12:02:39.730Z,2.85
2022-11-19T12:05:18.210Z,2.97
2022-11-19T12:08:06.222Z,3.27
2022-11-19T12:10:45.701Z,3.49
2022-11-19T12:13:40.028Z,3.68
2022-11-19T12:16:14.969Z,3.82
2022-11-19T12:18:51.132Z,3.78
2022-11-19T12:21:37.072Z,3.75
2022-11-19T12:24:26.308Z,3.75
2022-11-19T12:27:07.085Z,3.73
2022-11-19T12:29:43.253Z,3.72
2022-11-19T12:32:25.984Z,3.67
2022-11-19T12:35:13.711Z,3.61
2022-11-19T12:38:00.347Z,3.53
2022-11-19T12:40:42.557Z,3.44
2022-11-19T12:43:31.105Z,3.37
2022-11-19T12:46:10.234Z,3.31
2022-11-19T12:48:51.915Z,3.27
2022-11-19T12:51:45.402Z,3.22
2022-11-19T13:00:27.356Z,3.03
2022-11-19T13:03:08.091Z,2.99
2022-11-19T13:05:56.023Z,2.93
2022-11-19T13:12:44.321Z,2.83
2022-11-19T13:15:23.275Z,2.77
2022-11-19T13:21:17.969Z,2.73
2022-11-19T13:26:53.173Z,2.74
2022-11-19T13:29:57.312Z,2.73
2022-11-19T13:32:46.500Z,2.70
2022-11-19T13:35:49.591Z,2.68
2022-11-19T13:38:30.684Z,2.65
2022-11-19T13:41:28.537Z,2.63
2022-11-19T13:44:16.249Z,2.58
2022-11-19T13:56:34.771Z,2.50
2022-11-19T14:05:11.198Z,2.45
2022-11-19T14:08:02.481Z,2.41
2022-11-19T14:10:46.152Z,2.37
2022-11-19T14:13:35.702Z,2.35
2022-11-19T14:16:36.946Z,2.33
2022-11-19T14:22:49.941Z,2.27
2022-11-19T15:15:29.421Z,1.61
2022-11-19T15:18:14.330Z,1.53
2022-11-19T15:21:01.119Z,1.47
2022-11-19T15:23:36.326Z,1.45
2022-11-19T15:26:13.646Z,1.42
2022-11-19T15:28:53.781Z,1.37
2022-11-19T15:31:35.936Z,1.33
2022-11-19T15:34:49.277Z,1.26
2022-11-19T15:37:27.879Z,1.22
2022-11-19T15:39:58.046Z,1.17
2022-11-19T15:42:32.911Z,1.13
2022-11-19T15:45:06.187Z,1.10
2022-11-19T15:47:43.021Z,1.07
2022-11-19T15:50:17.519Z,1.03
2022-11-19T15:52:58.459Z,1.00
2022-11-19T15:55:28.642Z,0.96
2022-11-19T15:57:57.002Z,0.95
2022-11-19T16:00:26.305Z,0.92
2022-11-19T16:02:54.337Z,0.91
2022-11-19T16:05:24.613Z,0.89
2022-11-19T16:07:53.881Z,0.85
2022-11-19T16:10:25.267Z,0.83
2022-11-19T16:13:15.507Z,0.80
2022-11-19T16:16:09.725Z,0.78
2022-11-19T16:18:47.372Z,0.77
2022-11-19T16:21:19.800Z,0.78
2022-11-19T16:24:01.498Z,0.76
2022-11-19T16:26:29.296Z,0.73
2022-11-19T16:28:57.563Z,0.71
2022-11-19T16:31:32.017Z,0.68
2022-11-19T16:33:59.883Z,0.68
2022-11-19T16:36:29.897Z,0.68
2022-11-19T16:38:59.129Z,0.66
2022-11-19T16:41:44.888Z,0.63
2022-11-19T16:44:15.057Z,0.62
2022-11-19T16:46:44.105Z,0.61
2022-11-19T16:49:29.668Z,0.61
2022-11-19T16:51:57.992Z,0.60
2022-11-19T16:54:45.912Z,0.59
2022-11-19T16:57:15.423Z,0.55
2022-11-19T16:59:42.927Z,0.54
2022-11-19T17:02:16.895Z,0.52
2022-11-19T17:04:47.955Z,0.53
2022-11-19T17:07:23.420Z,0.52
2022-11-19T17:10:09.433Z,0.53
2022-11-19T17:12:38.176Z,0.52
2022-11-19T17:15:34.298Z,0.50
2022-11-19T17:18:15.742Z,0.51
2022-11-19T17:20:51.556Z,0.52
2022-11-19T17:23:21.338Z,0.52
2022-11-19T17:25:51.908Z,0.51
2022-11-19T17:28:22.050Z,0.50
2022-11-19T17:30:50.589Z,0.50
2022-11-19T17:33:22.998Z,0.50
2022-11-19T17:35:50.832Z,0.49
2022-11-19T17:38:20.299Z,0.50
2022-11-19T17:40:49.409Z,0.49
2022-11-19T17:43:38.779Z,0.48
2022-11-19T17:46:06.467Z,0.47
2022-11-19T17:48:36.896Z,0.47
2022-11-19T17:51:04.473Z,0.47
2022-11-19T17:53:32.006Z,0.47
2022-11-19T17:55:59.682Z,0.46
2022-11-19T18:01:28.524Z,0.47
2022-11-19T18:03:57.424Z,0.48
2022-11-19T18:06:25.117Z,0.49
2022-11-19T18:08:53.340Z,0.49
2022-11-19T18:11:22.774Z,0.50
2022-11-19T18:13:53.259Z,0.50
2022-11-19T18:16:22.612Z,0.51
2022-11-19T18:18:50.618Z,0.50
2022-11-19T18:21:21.923Z,0.52
2022-11-19T18:23:52.505Z,0.52
2022-11-19T18:26:22.500Z,0.52
2022-11-19T18:28:50.421Z,0.51
2022-11-19T18:31:20.419Z,0.51
2022-11-19T18:33:48.810Z,0.50
2022-11-19T18:36:19.205Z,0.52
2022-11-19T18:38:47.094Z,0.51
2022-11-19T18:41:18.820Z,0.50
2022-11-19T18:44:04.401Z,0.51
2022-11-19T18:46:32.032Z,0.53
2022-11-19T18:48:59.832Z,0.54
2022-11-19T18:51:31.074Z,0.57
2022-11-19T18:53:58.831Z,0.58
2022-11-19T18:56:26.745Z,0.58
2022-11-19T18:58:54.470Z,0.60
2022-11-19T19:01:23.895Z,0.61
2022-11-19T19:03:52.963Z,0.63
2022-11-19T19:06:23.074Z,0.64
2022-11-19T19:08:52.416Z,0.64
2022-11-19T19:11:39.686Z,0.63
2022-11-19T19:14:07.281Z,0.65
2022-11-19T19:16:35.453Z,0.65
2022-11-19T19:19:03.542Z,0.67
2022-11-19T19:21:31.403Z,0.68
2022-11-19T19:24:00.230Z,0.68
2022-11-19T19:26:27.786Z,0.69
2022-11-19T19:28:56.071Z,0.69
2022-11-19T19:31:25.275Z,0.71
2022-11-19T19:33:53.232Z,0.72
2022-11-19T19:36:22.607Z,0.72
2022-11-19T19:38:50.158Z,0.74
2022-11-19T19:41:21.069Z,0.74
2022-11-19T19:43:49.199Z,0.76
2022-11-19T19:46:17.977Z,0.76
2022-11-19T19:48:47.290Z,0.77
2022-11-19T19:51:16.429Z,0.76
2022-11-19T19:53:44.463Z,0.77
2022-11-19T19:56:15.927Z,0.79
2022-11-19T19:58:45.511Z,0.79
2022-11-19T20:01:15.199Z,0.80
2022-11-19T20:03:43.195Z,0.81
2022-11-19T20:06:12.551Z,0.82
2022-11-19T20:08:41.343Z,0.83
2022-11-19T20:11:10.695Z,0.84
2022-11-19T20:13:39.738Z,0.83
2022-11-19T20:16:16.169Z,0.81
2022-11-19T20:18:46.262Z,0.81
2022-11-19T20:21:16.510Z,0.82
2022-11-19T20:23:44.706Z,0.82
2022-11-19T20:26:14.664Z,0.80
2022-11-19T20:28:42.520Z,0.79
2022-11-19T20:31:13.217Z,0.80
2022-11-19T20:33:42.117Z,0.77
2022-11-19T20:36:11.381Z,0.74
2022-11-19T20:38:40.883Z,0.72
2022-11-19T20:41:31.816Z,0.68
2022-11-19T20:44:18.144Z,0.64
2022-11-19T20:46:47.592Z,0.59
2022-11-19T20:49:17.404Z,0.54
2022-11-19T20:51:46.119Z,0.52
2022-11-19T20:54:13.856Z,0.52
2022-11-19T20:56:41.963Z,0.50
2022-11-19T20:59:10.165Z,0.48
2022-11-19T21:01:38.627Z,0.47
2022-11-19T21:04:07.743Z,0.45
2022-11-19T21:06:35.631Z,0.45
2022-11-19T21:09:03.420Z,0.44
2022-11-19T21:11:30.989Z,0.43
2022-11-19T21:13:58.608Z,0.41
2022-11-19T21:16:28.619Z,0.42
2022-11-19T21:18:56.808Z,0.44
2022-11-19T21:21:26.414Z,0.45
2022-11-19T21:23:54.876Z,0.44
2022-11-19T21:26:25.157Z,0.42
2022-11-19T21:28:56.540Z,0.42
2022-11-19T21:31:37.786Z,0.42
2022-11-19T21:34:06.433Z,0.44
2022-11-19T21:36:36.744Z,0.42
2022-11-19T21:39:05.313Z,0.43
2022-11-19T21:41:33.219Z,0.41
2022-11-19T21:44:01.089Z,0.42
2022-11-19T21:46:28.622Z,0.44
2022-11-19T21:48:56.171Z,0.42
2022-11-19T21:51:25.135Z,0.42
2022-11-19T21:53:55.987Z,0.39
2022-11-19T21:56:23.563Z,0.40
2022-11-19T21:58:51.119Z,0.39
2022-11-19T22:01:18.729Z,0.40
2022-11-19T22:03:46.369Z,0.40
2022-11-19T22:06:13.866Z,0.40
2022-11-19T22:08:42.913Z,0.41
2022-11-19T22:11:31.923Z,0.40
2022-11-19T22:14:02.299Z,0.41
2022-11-19T22:16:30.467Z,0.41
2022-11-19T22:18:58.165Z,0.42
2022-11-19T22:21:27.046Z,0.41
2022-11-19T22:23:54.853Z,0.38
2022-11-19T22:26:23.709Z,0.36
2022-11-19T22:28:51.197Z,0.35
2022-11-19T22:31:18.712Z,0.31
2022-11-19T22:33:47.775Z,0.26
2022-11-19T22:36:15.319Z,0.22
2022-11-19T22:38:42.780Z,0.17
2022-11-19T22:41:11.969Z,0.15
2022-11-19T22:43:41.914Z,0.14
2022-11-19T22:46:11.446Z,0.13
2022-11-19T22:48:39.866Z,0.13
2022-11-19T22:51:09.064Z,0.14
2022-11-19T22:53:37.282Z,0.12
2022-11-19T22:56:06.796Z,0.12
2022-11-19T22:58:34.864Z,0.12
2022-11-19T23:01:07.341Z,0.14
2022-11-19T23:03:35.091Z,0.12
2022-11-19T23:06:02.744Z,0.08
2022-11-19T23:08:30.285Z,0.06
2022-11-19T23:10:59.516Z,0.02
2022-11-19T23:13:32.053Z,0.01
2022-11-19T23:16:07.115Z,0.01
2022-11-19T23:18:36.259Z,0.02
2022-11-19T23:21:06.218Z,0.03
2022-11-19T23:23:35.173Z,0.05
2022-11-19T23:26:03.779Z,0.05
2022-11-19T23:28:33.495Z,0.04
2022-11-19T23:31:05.155Z,0.05
2022-11-19T23:33:32.697Z,0.04
2022-11-19T23:36:04.628Z,0.03
2022-11-19T23:38:32.185Z,0.01
2022-11-19T23:41:00.404Z,0.02
2022-11-19T23:43:28.497Z,0.01
2022-11-19T23:45:57.654Z,-0.01
2022-11-19T23:48:26.620Z,-0.01
2022-11-19T23:50:54.154Z,0.00
2022-11-19T23:53:21.619Z,-0.02
2022-11-19T23:55:49.210Z,-0.01
2022-11-19T23:58:16.686Z,-0.02
